Time;durP1;ratioP1;P1;durP2;ratioP2;P2;SDS_P1;SDS_P2;PMS_P1;PMS_P2;Temp;Humidity;BMP_temperature;BMP_pressure;BME280_temperature;BME280_humidity;BME280_pressure;Samples;Min_cycle;Max_cycle;Signal;HPM_P1;HPM_P2
2022/03/22 00:01:03;;;;;;;;;18.25;18.25;;;;;14.75;41.28;102276.28;4978184;28;45355;-57
2022/03/22 00:03:29;;;;;;;;;22.00;19.25;;;;;14.67;41.46;102267.56;4960852;28;45125;-57
2022/03/22 00:05:54;;;;;;;;;22.25;20.75;;;;;14.67;41.43;102272.84;4960285;28;45316;-57
2022/03/22 00:08:21;;;;;;;;;21.00;21.00;;;;;14.68;41.10;102279.88;4959046;28;48197;-57
2022/03/22 00:10:46;;;;;;;;;17.00;15.75;;;;;14.66;41.24;102286.94;4960158;28;45385;-57
2022/03/22 00:13:11;;;;;;;;;15.50;15.25;;;;;14.66;41.46;102289.59;4960509;28;45318;-57
2022/03/22 00:15:37;;;;;;;;;18.75;16.50;;;;;14.64;41.38;102289.59;4960071;28;45328;-57
2022/03/22 00:18:03;;;;;;;;;23.00;20.25;;;;;14.60;41.87;102291.38;4959013;28;47002;-57
2022/03/22 00:20:29;;;;;;;;;20.00;18.50;;;;;14.58;41.42;102295.78;4984592;28;45370;-57
2022/03/22 00:22:55;;;;;;;;;19.25;19.25;;;;;14.56;41.53;102294.91;4969976;28;45319;-57
2022/03/22 00:25:21;;;;;;;;;19.25;17.75;;;;;14.53;41.89;102297.56;4989738;28;45185;-56
2022/03/22 00:27:51;;;;;;;;;23.00;21.25;;;;;14.53;41.31;102302.88;4975141;28;46167;-56
2022/03/22 00:30:28;;;;;;;;;19.50;19.00;;;;;14.51;41.40;102307.28;4972648;28;45277;-57
2022/03/22 00:32:55;;;;;;;;;19.75;19.25;;;;;14.45;41.48;102299.38;4960198;28;45363;-57
2022/03/22 00:35:26;;;;;;;;;24.00;20.50;;;;;14.43;41.59;102299.38;4958669;28;45438;-56
2022/03/22 00:37:53;;;;;;;;;26.00;23.00;;;;;14.43;41.61;102304.69;4959777;28;46076;-57
2022/03/22 00:40:20;;;;;;;;;21.50;20.50;;;;;14.42;41.44;102304.69;4959778;28;45395;-57
2022/03/22 00:42:47;;;;;;;;;22.50;20.50;;;;;14.40;41.55;102306.44;4960129;28;45292;-57
2022/03/22 00:45:16;;;;;;;;;23.00;20.00;;;;;14.37;41.29;102301.19;4959753;28;45261;-57
2022/03/22 00:47:50;;;;;;;;;22.00;19.75;;;;;14.33;41.50;102302.09;4987269;28;47045;-57
2022/03/22 00:50:19;;;;;;;;;23.75;21.50;;;;;14.30;41.48;102300.31;4959736;28;45383;-57
2022/03/22 00:52:45;;;;;;;;;25.00;20.25;;;;;14.28;41.80;102303.00;4959955;28;45336;-56
2022/03/22 00:55:12;;;;;;;;;19.50;16.75;;;;;14.24;41.85;102298.59;4960057;28;45440;-56
2022/03/22 00:57:38;;;;;;;;;20.50;18.00;;;;;14.22;41.74;102300.38;4961321;28;46338;-57
2022/03/22 01:00:07;;;;;;;;;27.00;24.00;;;;;14.20;41.83;102306.56;4969871;28;45193;-56
2022/03/22 01:02:35;;;;;;;;;20.00;18.50;;;;;14.18;41.88;102301.28;4959563;28;45471;-57
2022/03/22 01:05:07;;;;;;;;;19.00;19.00;;;;;14.14;42.02;102297.75;4959672;28;45445;-57
2022/03/22 01:07:35;;;;;;;;;20.25;18.25;;;;;14.14;41.32;102299.53;4959309;28;46101;-57
2022/03/22 01:10:06;;;;;;;;;23.75;21.50;;;;;14.12;41.48;102298.66;4959338;28;45456;-56
2022/03/22 01:12:34;;;;;;;;;22.75;19.25;;;;;14.10;41.50;102287.19;4959612;28;45500;-56
2022/03/22 01:15:00;;;;;;;;;23.50;21.25;;;;;14.08;41.70;102297.78;4959363;28;45309;-57
2022/03/22 01:17:25;;;;;;;;;20.50;19.75;;;;;14.07;41.78;102296.03;4959295;28;46347;-56
2022/03/22 01:19:51;;;;;;;;;24.00;21.50;;;;;14.05;41.80;102289.88;4969100;28;45270;-56
2022/03/22 01:22:17;;;;;;;;;20.50;20.50;;;;;14.01;41.76;102287.25;4977904;27;45403;-56
2022/03/22 01:24:43;;;;;;;;;22.75;18.75;;;;;14.01;41.57;102288.13;4959561;28;45296;-57
2022/03/22 01:27:09;;;;;;;;;16.75;16.75;;;;;14.00;41.75;102285.50;4959268;28;46214;-57
2022/03/22 01:29:35;;;;;;;;;28.25;24.25;;;;;13.97;41.77;102292.56;4984581;28;45434;-57
2022/03/22 01:32:00;;;;;;;;;24.00;22.00;;;;;13.96;41.60;102295.19;4972968;28;45411;-57
2022/03/22 01:34:26;;;;;;;;;22.25;19.75;;;;;13.93;41.38;102290.78;4984525;28;45507;-56
2022/03/22 01:36:51;;;;;;;;;25.25;23.50;;;;;13.92;41.40;102288.16;4973082;28;45388;-57
2022/03/22 01:39:17;;;;;;;;;25.00;21.75;;;;;13.89;41.39;102296.97;4959297;28;45450;-57
2022/03/22 01:41:42;;;;;;;;;23.50;21.00;;;;;13.88;41.22;102295.22;4991480;28;45365;-57
2022/03/22 01:44:07;;;;;;;;;21.75;21.50;;;;;13.87;41.48;102301.38;4977724;28;45481;-57
2022/03/22 01:46:35;;;;;;;;;22.50;21.25;;;;;13.85;41.44;102297.88;4972123;28;46062;-57
2022/03/22 01:49:01;;;;;;;;;20.25;20.25;;;;;13.85;41.68;102303.16;4959209;28;45177;-57
2022/03/22 01:51:31;;;;;;;;;28.50;22.00;;;;;13.84;41.94;102300.53;4972213;28;45337;-56
2022/03/22 01:53:57;;;;;;;;;23.25;23.00;;;;;13.79;41.47;102296.13;4958968;28;45529;-56
2022/03/22 01:56:22;;;;;;;;;17.50;17.25;;;;;13.79;41.61;102288.19;4959416;28;46457;-56
2022/03/22 01:58:48;;;;;;;;;22.00;21.50;;;;;13.75;41.83;102297.03;4970308;28;45300;-57
2022/03/22 02:06:45;;;;;;;;;22.50;20.00;;;;;13.69;41.30;102291.75;4959030;28;45524;-56
2022/03/22 02:09:10;;;;;;;;;26.00;24.00;;;;;13.69;41.37;102297.03;4958399;28;45564;-57
2022/03/22 02:11:37;;;;;;;;;22.50;21.00;;;;;13.68;41.73;102297.91;4957975;28;45345;-57
2022/03/22 02:14:04;;;;;;;;;25.00;21.50;;;;;13.65;41.35;102293.53;4957610;28;45342;-57
2022/03/22 02:16:29;;;;;;;;;29.00;25.00;;;;;13.62;41.48;102288.25;4957253;28;47403;-56
2022/03/22 02:18:54;;;;;;;;;23.75;20.25;;;;;13.62;41.58;102290.00;4958725;28;45158;-57
2022/03/22 02:21:23;;;;;;;;;26.00;22.25;;;;;13.60;41.77;102290.00;4987252;28;45378;-56
2022/03/22 02:23:51;;;;;;;;;22.00;21.00;;;;;13.57;41.74;102286.50;4975138;28;45379;-56
2022/03/22 02:26:18;;;;;;;;;29.25;24.75;;;;;13.58;41.64;102302.31;4958589;28;46441;-57
2022/03/22 02:28:43;;;;;;;;;20.75;20.75;;;;;13.56;41.53;102290.00;4977550;28;45251;-57
2022/03/22 02:31:09;;;;;;;;;27.25;26.00;;;;;13.54;41.48;102295.31;4978240;28;45339;-57
2022/03/22 02:33:35;;;;;;;;;23.00;21.00;;;;;13.53;41.72;102293.53;4978659;28;45554;-56
2022/03/22 02:36:00;;;;;;;;;22.00;20.50;;;;;13.50;41.74;102298.84;4977077;28;48004;-56
2022/03/22 02:38:26;;;;;;;;;27.00;23.75;;;;;13.46;41.59;102294.47;4978615;28;45399;-56
2022/03/22 02:40:51;;;;;;;;;22.25;19.75;;;;;13.44;41.87;102296.22;4978075;28;45493;-57
2022/03/22 02:43:17;;;;;;;;;23.00;21.75;;;;;13.43;41.45;102300.63;4978469;28;45326;-56
2022/03/22 02:45:42;;;;;;;;;30.00;22.75;;;;;13.43;41.33;102299.72;4977999;28;46057;-56
2022/03/22 02:48:08;;;;;;;;;23.50;21.25;;;;;13.39;41.46;102293.56;4974833;28;45386;-56
2022/03/22 02:50:33;;;;;;;;;27.25;22.25;;;;;13.37;41.51;102294.41;4958724;28;45344;-56
2022/03/22 02:53:00;;;;;;;;;25.25;24.50;;;;;13.34;41.56;102297.94;4970078;28;45550;-56
2022/03/22 02:55:26;;;;;;;;;24.75;22.25;;;;;13.36;41.80;102304.13;4966433;28;46887;-57
2022/03/22 02:57:51;;;;;;;;;23.25;22.50;;;;;13.33;41.48;102302.34;4960997;28;45337;-57
2022/03/22 03:00:17;;;;;;;;;27.00;22.50;;;;;13.32;41.71;102302.38;4957050;28;45467;-57
2022/03/22 03:02:43;;;;;;;;;33.25;29.25;;;;;13.31;41.59;102303.25;4958196;28;45310;-57
2022/03/22 03:05:09;;;;;;;;;26.50;21.75;;;;;13.30;41.49;102301.47;4958237;28;46217;-56
2022/03/22 03:07:35;;;;;;;;;23.00;22.50;;;;;13.27;41.66;102310.28;4958122;28;45232;-57
2022/03/22 03:10:00;;;;;;;;;22.50;20.75;;;;;13.25;41.42;102308.53;4958137;28;45483;-56
2022/03/22 03:12:25;;;;;;;;;26.50;24.50;;;;;13.24;41.81;102310.25;4957998;28;45373;-57
2022/03/22 03:14:51;;;;;;;;;23.00;20.25;;;;;13.23;41.56;102302.34;4958005;28;45255;-57
2022/03/22 03:17:16;;;;;;;;;26.00;24.25;;;;;13.19;41.54;102309.38;4957950;28;45452;-57
2022/03/22 03:19:42;;;;;;;;;21.00;21.00;;;;;13.19;41.56;102314.66;4960456;28;45258;-57
2022/03/22 03:22:08;;;;;;;;;25.75;23.50;;;;;13.19;41.62;102314.66;4982847;28;45438;-57
2022/03/22 03:24:35;;;;;;;;;24.75;22.50;;;;;13.16;41.81;102315.53;4969047;28;46275;-56
2022/03/22 03:27:01;;;;;;;;;26.50;23.75;;;;;13.15;41.85;102315.56;4959419;28;45312;-57
2022/03/22 03:29:26;;;;;;;;;22.75;22.00;;;;;13.12;41.58;102315.56;4956482;28;45265;-57
2022/03/22 03:31:52;;;;;;;;;25.50;24.00;;;;;13.10;41.67;102314.69;4957811;28;45579;-57
2022/03/22 03:34:18;;;;;;;;;25.50;24.25;;;;;13.08;41.70;102319.97;4956840;28;45272;-57
2022/03/22 03:36:44;;;;;;;;;22.00;20.50;;;;;13.03;42.00;102315.53;4956471;28;45232;-57
2022/03/22 03:39:11;;;;;;;;;25.00;24.00;;;;;13.04;41.83;102315.53;4957850;28;45508;-57
2022/03/22 03:41:56;;;;;;;;;25.50;23.25;;;;;13.01;41.66;102318.19;4957455;28;45338;-57
2022/03/22 03:47:24;;;;;;;;;27.25;22.75;;;;;12.93;41.98;102320.81;4957753;28;45229;-57
2022/03/22 03:49:55;;;;;;;;;25.50;23.25;;;;;12.92;41.77;102320.84;4960168;28;45279;-57
2022/03/22 03:52:21;;;;;;;;;24.75;23.00;;;;;12.87;41.99;102318.19;4965893;28;45540;-57
2022/03/22 03:54:47;;;;;;;;;27.00;23.50;;;;;12.86;41.71;102329.59;4957261;28;46048;-57
2022/03/22 03:57:13;;;;;;;;;26.25;22.50;;;;;12.83;41.72;102329.59;4962658;28;45245;-57
2022/03/22 03:59:40;;;;;;;;;22.25;22.25;;;;;12.81;41.93;102326.06;4957262;28;45529;-57
2022/03/22 04:02:07;;;;;;;;;24.00;23.00;;;;;12.79;41.83;102328.72;4957468;28;45473;-57
2022/03/22 04:04:35;;;;;;;;;24.50;23.75;;;;;12.76;41.84;102331.34;4956019;28;48071;-56
2022/03/22 04:07:01;;;;;;;;;28.75;24.25;;;;;12.74;41.92;102334.84;4957331;28;45331;-57
2022/03/22 04:09:26;;;;;;;;;27.00;24.00;;;;;12.70;41.88;102328.69;4956939;28;45170;-57
2022/03/22 04:11:52;;;;;;;;;24.50;23.75;;;;;12.67;41.85;102332.19;4957440;28;45180;-57
2022/03/22 04:14:17;;;;;;;;;29.50;27.00;;;;;12.63;41.75;102330.44;4957104;28;45515;-57
2022/03/22 04:16:42;;;;;;;;;23.50;20.25;;;;;12.62;42.00;102333.94;4955803;28;45328;-56
2022/03/22 04:19:08;;;;;;;;;26.75;24.75;;;;;12.59;41.92;102336.59;4957187;28;45737;-57
2022/03/22 04:21:38;;;;;;;;;28.75;24.75;;;;;12.57;41.84;102343.59;4971027;28;45207;-57
2022/03/22 04:24:08;;;;;;;;;27.00;24.25;;;;;12.56;42.03;102343.59;4956969;28;45429;-57
2022/03/22 04:26:39;;;;;;;;;30.50;25.75;;;;;12.53;42.01;102347.13;4957153;28;45193;-56
2022/03/22 04:34:34;;;;;;;;;27.75;25.75;;;;;12.43;42.05;102343.56;4958284;28;45487;-57
2022/03/22 04:37:01;;;;;;;;;26.00;22.25;;;;;12.40;42.03;102346.19;4960176;28;45322;-57
2022/03/22 04:39:28;;;;;;;;;25.00;24.75;;;;;12.39;42.24;102343.53;4959927;28;45319;-57
2022/03/22 04:41:55;;;;;;;;;30.25;29.00;;;;;12.34;42.21;102340.91;4959997;28;45719;-57
2022/03/22 04:44:21;;;;;;;;;25.00;23.50;;;;;12.33;42.17;102347.91;4959810;28;46505;-57
2022/03/22 04:46:46;;;;;;;;;27.00;25.75;;;;;12.31;42.12;102347.03;4959813;28;45309;-56
2022/03/22 04:49:12;;;;;;;;;29.50;24.50;;;;;12.29;42.35;102347.88;4960125;28;45379;-56
2022/03/22 04:57:05;;;;;;;;;30.00;27.50;;;;;12.18;42.03;102350.47;4960255;28;45367;-56
2022/03/22 04:59:30;;;;;;;;;30.75;28.75;;;;;12.16;42.25;102352.22;4972442;28;45302;-56
2022/03/22 05:01:57;;;;;;;;;28.00;28.00;;;;;12.16;42.08;102365.41;4959909;28;45335;-56
2022/03/22 05:04:23;;;;;;;;;24.75;23.75;;;;;12.14;42.38;102365.41;4959486;28;47032;-56
2022/03/22 05:06:48;;;;;;;;;29.25;26.25;;;;;12.11;42.19;102367.13;4958505;28;45419;-56
2022/03/22 05:09:13;;;;;;;;;26.00;24.75;;;;;12.06;42.02;102363.59;4959519;28;45446;-56
2022/03/22 05:11:39;;;;;;;;;28.75;25.50;;;;;12.09;42.25;102371.50;4959580;28;45285;-56
2022/03/22 05:14:05;;;;;;;;;31.50;28.25;;;;;12.06;42.31;102360.97;4959612;28;45324;-56
2022/03/22 05:16:31;;;;;;;;;27.50;24.00;;;;;12.02;42.37;102366.22;4959447;28;45335;-56
2022/03/22 05:18:57;;;;;;;;;29.50;23.75;;;;;12.00;42.35;102367.09;4959652;28;45331;-57
2022/03/22 05:21:24;;;;;;;;;28.75;27.50;;;;;11.98;42.43;102372.31;4989447;28;45513;-57
2022/03/22 05:23:49;;;;;;;;;26.50;25.25;;;;;11.96;42.42;102376.72;4961238;28;45513;-56
2022/03/22 05:26:15;;;;;;;;;25.50;21.50;;;;;11.90;42.49;102376.66;4959566;28;45542;-57
2022/03/22 05:28:41;;;;;;;;;29.50;25.00;;;;;11.92;42.36;102379.28;4959671;28;45359;-57
2022/03/22 05:31:09;;;;;;;;;27.50;25.75;;;;;11.88;42.78;102388.91;4959211;28;45424;-57
2022/03/22 05:33:34;;;;;;;;;30.00;28.25;;;;;11.85;42.45;102379.25;4959236;28;45340;-57
2022/03/22 05:36:00;;;;;;;;;30.50;25.25;;;;;11.82;42.45;102383.59;4958466;28;45427;-57
2022/03/22 05:38:25;;;;;;;;;31.75;27.00;;;;;11.80;42.38;102386.25;4974346;28;45266;-57
2022/03/22 05:40:52;;;;;;;;;28.50;25.50;;;;;11.77;42.61;102385.34;4959390;28;45331;-57
2022/03/22 05:43:17;;;;;;;;;26.50;26.25;;;;;11.73;42.57;102387.06;4959114;28;46360;-58
2022/03/22 05:45:49;;;;;;;;;31.00;24.50;;;;;11.69;42.50;102386.16;4957777;28;45757;-57
2022/03/22 05:48:15;;;;;;;;;31.25;28.50;;;;;11.67;42.45;102394.91;4962364;28;45391;-58
2022/03/22 05:50:41;;;;;;;;;28.25;27.50;;;;;11.64;42.63;102395.78;4967650;28;45518;-57
2022/03/22 05:53:06;;;;;;;;;27.75;26.25;;;;;11.61;42.75;102401.03;4958907;28;46135;-57
2022/03/22 05:55:32;;;;;;;;;37.50;30.00;;;;;11.59;42.68;102408.03;4959511;28;45309;-57
2022/03/22 05:57:58;;;;;;;;;21.75;21.00;;;;;11.50;42.56;102400.94;4963893;28;45417;-57
2022/03/22 06:00:23;;;;;;;;;25.75;24.75;;;;;11.53;42.53;102406.25;4966876;28;45245;-57
2022/03/22 06:02:48;;;;;;;;;30.50;28.75;;;;;11.50;42.74;102407.97;4958792;28;45716;-56
2022/03/22 06:05:16;;;;;;;;;27.25;22.75;;;;;11.49;42.47;102412.31;4959087;28;45233;-56
2022/03/22 06:07:43;;;;;;;;;25.25;24.25;;;;;11.48;42.67;102429.00;4959030;28;45403;-57
2022/03/22 06:10:12;;;;;;;;;29.50;28.50;;;;;11.47;42.60;102426.34;4958690;28;45364;-57
2022/03/22 06:12:45;;;;;;;;;28.00;27.00;;;;;11.46;42.67;102429.84;4958705;28;45921;-56
2022/03/22 06:15:18;;;;;;;;;24.75;22.75;;;;;11.44;42.59;102434.22;4958617;28;45334;-56
2022/03/22 06:17:48;;;;;;;;;28.50;26.50;;;;;11.43;42.55;102428.06;4957989;28;45498;-55
2022/03/22 06:20:14;;;;;;;;;27.00;25.00;;;;;11.43;42.64;102429.81;4974828;28;45440;-55
2022/03/22 06:22:40;;;;;;;;;29.50;26.25;;;;;11.41;42.67;102431.53;4969311;28;45241;-54
2022/03/22 06:25:06;;;;;;;;;30.00;28.00;;;;;11.37;42.57;102430.63;4958617;28;45324;-55
2022/03/22 06:27:35;;;;;;;;;35.25;31.00;;;;;11.36;42.71;102436.78;4959079;28;45416;-55
2022/03/22 06:30:07;;;;;;;;;24.50;20.25;;;;;11.36;42.80;102431.53;4958596;28;45479;-55
2022/03/22 06:32:42;;;;;;;;;31.25;27.25;;;;;11.34;42.70;102434.13;4958752;28;45344;-53
2022/03/22 06:35:10;;;;;;;;;28.00;26.75;;;;;11.33;42.78;102431.47;4958482;28;45285;-56
2022/03/22 06:37:36;;;;;;;;;33.25;28.00;;;;;11.34;42.75;102442.00;4958705;28;45435;-54
2022/03/22 06:40:10;;;;;;;;;28.50;24.50;;;;;11.33;42.64;102448.19;4958424;28;45235;-48
2022/03/22 06:42:37;;;;;;;;;26.25;25.00;;;;;11.31;42.74;102447.25;4973437;28;46696;-52
2022/03/22 06:45:04;;;;;;;;;29.75;26.25;;;;;11.31;42.97;102444.63;4958147;28;45376;-60
2022/03/22 06:47:30;;;;;;;;;31.50;28.25;;;;;11.31;42.81;102443.75;4958166;28;45363;-60
2022/03/22 06:49:56;;;;;;;;;32.00;27.00;;;;;11.32;42.72;102446.41;4962759;28;45575;-61
2022/03/22 06:52:22;;;;;;;;;26.00;25.50;;;;;11.34;42.61;102444.66;4965693;28;46227;-62
2022/03/22 06:54:47;;;;;;;;;27.00;26.25;;;;;11.35;42.81;102454.31;4958093;28;45542;-65
2022/03/22 06:57:12;;;;;;;;;33.50;29.75;;;;;11.37;42.69;102459.59;4962914;28;45300;-61
2022/03/22 06:59:38;;;;;;;;;28.50;26.25;;;;;11.33;42.82;102442.91;4956804;28;45315;-60
2022/03/22 07:02:05;;;;;;;;;28.50;27.00;;;;;11.36;42.65;102448.19;4958140;28;45431;-63
2022/03/22 07:04:31;;;;;;;;;32.50;31.25;;;;;11.35;42.61;102456.94;4958055;28;45360;-60
2022/03/22 07:06:57;;;;;;;;;34.75;31.00;;;;;11.35;42.62;102454.31;4973389;28;45291;-58
2022/03/22 07:09:23;;;;;;;;;30.75;26.25;;;;;11.36;42.82;102456.09;4957650;28;45243;-63
2022/03/22 07:11:52;;;;;;;;;33.25;28.75;;;;;11.37;42.68;102456.94;4958005;28;46171;-54
2022/03/22 07:14:19;;;;;;;;;30.25;27.00;;;;;11.37;42.75;102464.84;4956511;28;45383;-57
2022/03/22 07:16:47;;;;;;;;;31.00;29.75;;;;;11.40;42.62;102469.28;4984221;28;45406;-58
2022/03/22 07:19:16;;;;;;;;;29.00;24.50;;;;;11.42;42.66;102459.63;4958115;28;45305;-54
2022/03/22 07:21:42;;;;;;;;;30.00;29.00;;;;;11.40;42.82;102464.03;4972006;28;46620;-58
2022/03/22 07:24:09;;;;;;;;;26.00;26.00;;;;;11.40;42.63;102464.91;4958090;28;45449;-59
2022/03/22 07:26:34;;;;;;;;;30.75;27.00;;;;;11.46;42.75;102469.31;4957944;28;45380;-55
2022/03/22 07:29:00;;;;;;;;;37.25;31.75;;;;;11.49;42.51;102474.63;4958018;28;45284;-62
2022/03/22 07:31:25;;;;;;;;;39.50;33.00;;;;;11.50;42.55;102471.16;4958110;28;45565;-62
2022/03/22 07:33:51;;;;;;;;;31.75;29.50;;;;;11.49;42.64;102466.75;4958423;28;45199;-62
2022/03/22 07:36:16;;;;;;;;;34.00;30.25;;;;;11.55;42.50;102466.78;4958032;28;45221;-62
2022/03/22 07:38:42;;;;;;;;;31.50;29.50;;;;;11.59;42.60;102467.72;4958162;28;45224;-61
2022/03/22 07:41:07;;;;;;;;;29.75;28.00;;;;;11.59;42.49;102468.59;4956270;28;48090;-62
2022/03/22 07:43:33;;;;;;;;;33.75;30.75;;;;;11.61;42.88;102473.84;4956589;28;45478;-62
2022/03/22 07:45:59;;;;;;;;;34.75;30.00;;;;;11.68;42.40;102478.31;4957650;28;45230;-63
2022/03/22 07:48:24;;;;;;;;;29.00;25.00;;;;;11.67;42.00;102469.53;4962091;28;45280;-62
2022/03/22 07:53:34;;;;;;;;;31.25;28.25;;;;;11.77;42.53;102485.41;4957821;28;45229;-63
2022/03/22 07:55:59;;;;;;;;;35.00;30.25;;;;;11.79;42.49;102481.94;4956184;28;45352;-61
2022/03/22 07:58:25;;;;;;;;;29.75;27.25;;;;;11.81;42.39;102476.66;4957653;28;45229;-61
2022/03/22 08:00:50;;;;;;;;;28.25;25.50;;;;;11.84;42.38;102480.22;4957185;28;45506;-62
2022/03/22 08:03:18;;;;;;;;;31.00;28.25;;;;;11.90;42.40;102479.38;4957504;28;45467;-63
2022/03/22 08:05:47;;;;;;;;;29.00;26.00;;;;;11.93;42.24;102476.78;4957508;28;45630;-63
2022/03/22 08:08:14;;;;;;;;;29.25;28.75;;;;;11.97;42.11;102472.44;4958152;28;45310;-63
2022/03/22 08:10:39;;;;;;;;;29.25;26.25;;;;;12.00;42.26;102481.25;4959358;28;48166;-62
2022/03/22 08:13:08;;;;;;;;;31.50;30.50;;;;;12.03;41.85;102473.34;4960572;28;45149;-61
2022/03/22 08:15:34;;;;;;;;;21.75;19.25;;;;;12.07;41.84;102469.00;4960180;28;45447;-61
2022/03/22 08:17:59;;;;;;;;;30.00;28.00;;;;;12.10;41.59;102478.69;4960442;28;45529;-61
2022/03/22 08:20:27;;;;;;;;;25.50;24.50;;;;;12.15;41.69;102472.59;4984494;28;45366;-61
2022/03/22 08:22:52;;;;;;;;;29.25;28.75;;;;;12.21;41.22;102476.13;4960529;28;45320;-61
2022/03/22 08:25:25;;;;;;;;;29.25;25.00;;;;;12.27;41.59;102481.44;4960271;28;45466;-61
2022/03/22 08:27:51;;;;;;;;;28.75;28.50;;;;;12.32;41.60;102477.94;4960293;28;45224;-61
2022/03/22 08:30:21;;;;;;;;;25.50;23.50;;;;;12.35;41.48;102475.34;4959742;28;45343;-62
2022/03/22 08:32:58;;;;;;;;;30.00;26.50;;;;;12.42;41.38;102480.66;4960218;28;45384;-61
2022/03/22 08:35:25;;;;;;;;;30.50;26.25;;;;;12.48;41.29;102486.84;4960333;28;45409;-62
2022/03/22 08:37:51;;;;;;;;;27.50;23.75;;;;;12.58;40.98;102487.78;4960250;28;45335;-60
2022/03/22 08:40:16;;;;;;;;;28.50;24.00;;;;;12.63;40.84;102483.41;4959798;28;46165;-60
2022/03/22 08:42:43;;;;;;;;;28.25;24.75;;;;;12.68;40.82;102488.72;4960141;28;45301;-59
2022/03/22 08:45:14;;;;;;;;;34.00;29.75;;;;;12.74;40.60;102494.03;4959942;28;45243;-59
2022/03/22 08:47:41;;;;;;;;;28.50;27.00;;;;;12.81;40.61;102489.63;4960052;28;45277;-60
2022/03/22 08:50:10;;;;;;;;;24.50;21.50;;;;;12.91;40.50;102496.72;4972775;28;45399;-58
2022/03/22 08:52:37;;;;;;;;;18.75;18.75;;;;;13.00;40.53;102502.03;4978254;28;45330;-59
2022/03/22 08:55:04;;;;;;;;;22.25;20.50;;;;;13.10;40.23;102487.09;4977926;28;45342;-62
2022/03/22 08:57:30;;;;;;;;;23.25;20.25;;;;;13.20;39.86;102505.63;4979317;28;45336;-57
2022/03/22 08:59:55;;;;;;;;;23.25;22.75;;;;;13.29;39.72;102503.00;4978842;28;46483;-58
2022/03/22 09:02:20;;;;;;;;;18.50;16.50;;;;;13.37;39.52;102503.00;4979158;28;45365;-59
2022/03/22 09:07:29;;;;;;;;;27.75;18.75;;;;;13.51;38.93;102505.72;4978473;28;45372;-60
2022/03/22 09:09:55;;;;;;;;;21.75;21.75;;;;;13.58;38.92;102497.78;4978581;28;45340;-58
2022/03/22 09:12:20;;;;;;;;;24.50;20.50;;;;;13.67;38.94;102493.41;4978974;28;45398;-57
2022/03/22 09:14:46;;;;;;;;;26.50;22.75;;;;;13.77;38.87;102506.63;4979032;28;45224;-57
2022/03/22 09:17:13;;;;;;;;;21.00;19.50;;;;;13.86;38.72;102496.94;4979155;28;45326;-59
2022/03/22 09:19:39;;;;;;;;;21.00;21.00;;;;;13.93;38.72;102502.22;4978295;28;45237;-58
2022/03/22 09:22:08;;;;;;;;;18.00;17.00;;;;;14.03;38.31;102494.31;4959769;28;45306;-59
2022/03/22 09:24:35;;;;;;;;;26.50;21.75;;;;;14.11;38.41;102511.91;4959516;28;45301;-58
2022/03/22 09:27:01;;;;;;;;;22.50;18.75;;;;;14.21;38.04;102493.38;4959639;28;45352;-59
2022/03/22 09:29:26;;;;;;;;;20.75;19.75;;;;;14.28;38.13;102498.66;4957843;28;47422;-58
2022/03/22 09:31:52;;;;;;;;;23.75;22.75;;;;;14.37;37.91;102499.53;4959403;28;45302;-58
2022/03/22 09:34:18;;;;;;;;;22.25;19.75;;;;;14.47;38.08;102499.50;4958182;28;45316;-58
2022/03/22 09:36:44;;;;;;;;;20.75;20.00;;;;;14.56;37.62;102495.06;4959447;28;45494;-61
2022/03/22 09:39:09;;;;;;;;;23.25;22.50;;;;;14.64;37.60;102490.66;4957841;28;46913;-58
2022/03/22 09:41:37;;;;;;;;;29.00;26.75;;;;;14.74;37.91;102496.81;4959457;28;45349;-58
2022/03/22 09:44:03;;;;;;;;;18.25;18.00;;;;;14.84;37.32;102498.56;4959356;28;45310;-58
2022/03/22 09:46:32;;;;;;;;;22.25;21.25;;;;;14.94;37.22;102487.03;4959029;28;45324;-58
2022/03/22 09:48:58;;;;;;;;;24.75;23.25;;;;;15.07;37.28;102484.34;4961668;28;47245;-58
2022/03/22 09:54:09;;;;;;;;;24.50;22.75;;;;;15.33;37.55;102484.16;4977935;28;45244;-58
2022/03/22 09:56:34;;;;;;;;;19.00;18.00;;;;;15.48;37.13;102475.22;4964476;28;45619;-58
2022/03/22 09:59:02;;;;;;;;;20.75;18.00;;;;;15.71;37.18;102490.06;4978426;28;46194;-58
2022/03/22 10:01:28;;;;;;;;;28.25;20.00;;;;;15.88;37.21;102482.88;4976985;28;46164;-58
2022/03/22 10:04:08;;;;;;;;;21.50;20.75;;;;;16.07;36.89;102485.38;4978776;28;45323;-58
2022/03/22 10:06:35;;;;;;;;;21.00;20.75;;;;;16.23;36.71;102478.16;4978296;28;45162;-57
2022/03/22 10:09:03;;;;;;;;;22.00;20.50;;;;;16.35;37.06;102483.34;4978443;28;45388;-58
2022/03/22 10:11:35;;;;;;;;;23.75;20.50;;;;;16.46;37.06;102469.94;4978085;28;45509;-58
2022/03/22 10:14:01;;;;;;;;;23.50;21.00;;;;;16.56;36.48;102476.91;4978632;28;45351;-58
2022/03/22 10:16:27;;;;;;;;;19.75;19.00;;;;;16.68;36.25;102482.97;4977985;28;45369;-58
2022/03/22 10:18:53;;;;;;;;;24.50;23.25;;;;;16.73;36.36;102478.50;4978524;28;45269;-58
2022/03/22 10:21:19;;;;;;;;;22.00;20.25;;;;;16.79;35.92;102467.78;5027114;28;45307;-58
2022/03/22 10:23:49;;;;;;;;;19.00;19.00;;;;;16.86;36.10;102477.41;4959043;28;45297;-58
2022/03/22 10:26:15;;;;;;;;;19.50;13.75;;;;;16.93;35.72;102470.31;4958725;28;45249;-58
2022/03/22 10:28:55;;;;;;;;;23.00;22.25;;;;;17.02;35.66;102470.16;4958674;28;47169;-58
2022/03/22 10:31:34;;;;;;;;;22.25;19.25;;;;;17.09;35.43;102470.06;4957791;28;45191;-58
2022/03/22 10:34:01;;;;;;;;;22.50;22.00;;;;;17.15;35.67;102457.56;4958770;28;45232;-58
2022/03/22 10:36:26;;;;;;;;;19.25;17.75;;;;;17.26;35.43;102452.13;4958711;28;45480;-58
2022/03/22 10:38:59;;;;;;;;;19.50;19.25;;;;;17.36;35.35;102461.69;4958495;28;46059;-58
2022/03/22 10:41:30;;;;;;;;;19.00;19.00;;;;;17.47;35.31;102458.88;4957365;28;45181;-59
2022/03/22 10:44:06;;;;;;;;;17.25;14.75;;;;;17.59;35.32;102457.78;4957387;28;45510;-59
2022/03/22 10:46:32;;;;;;;;;23.00;19.75;;;;;17.73;35.43;102452.25;4958673;28;46176;-58
2022/03/22 10:49:08;;;;;;;;;23.00;21.75;;;;;17.90;35.45;102451.06;4962207;28;46550;-59
2022/03/22 10:51:52;;;;;;;;;23.00;17.75;;;;;18.07;35.29;102449.00;4978050;28;45194;-59
2022/03/22 10:54:21;;;;;;;;;22.75;20.25;;;;;18.26;35.59;102454.00;4978115;28;45169;-59
2022/03/22 10:56:48;;;;;;;;;21.00;20.50;;;;;18.41;35.52;102451.03;4976552;28;45442;-59
2022/03/22 10:59:16;;;;;;;;;25.50;21.25;;;;;18.63;35.37;102447.94;4972376;28;48332;-61
2022/03/22 11:01:43;;;;;;;;;20.50;20.50;;;;;18.83;35.66;102440.38;4966285;28;45237;-59
2022/03/22 11:04:09;;;;;;;;;23.75;22.00;;;;;19.07;35.41;102447.88;4968538;28;45162;-59
2022/03/22 11:06:37;;;;;;;;;22.25;18.75;;;;;19.30;35.64;102445.56;4962464;28;45413;-60
2022/03/22 11:09:03;;;;;;;;;23.50;21.25;;;;;19.52;36.10;102429.06;4974047;28;48242;-59
2022/03/22 11:11:31;;;;;;;;;24.00;20.75;;;;;19.88;36.02;102442.38;4972783;28;45608;-60
2022/03/22 11:13:57;;;;;;;;;26.00;24.00;;;;;20.28;35.86;102435.09;4970622;28;45527;-60
2022/03/22 11:16:26;;;;;;;;;24.00;20.50;;;;;20.73;36.10;102437.34;4959904;28;45464;-60
2022/03/22 11:18:52;;;;;;;;;21.00;19.50;;;;;21.22;36.48;102436.72;4962580;28;45439;-60
2022/03/22 11:21:19;;;;;;;;;18.75;18.75;;;;;21.70;35.95;102436.06;4966782;28;45427;-60
2022/03/22 11:23:47;;;;;;;;;19.00;19.00;;;;;22.17;36.42;102423.72;4977431;27;45456;-60
2022/03/22 11:26:22;;;;;;;;;23.00;20.75;;;;;22.76;36.44;102427.78;4975166;28;45318;-60
2022/03/22 11:28:50;;;;;;;;;28.25;20.25;;;;;23.30;36.66;102428.31;4965061;28;46492;-60
2022/03/22 11:31:21;;;;;;;;;24.75;21.50;;;;;23.82;36.26;102429.72;4962290;28;45405;-59
2022/03/22 11:36:47;;;;;;;;;20.75;19.00;;;;;24.97;36.09;102422.75;4968494;28;45215;-60
2022/03/22 11:39:18;;;;;;;;;20.50;19.25;;;;;25.49;36.64;102413.06;4978895;28;45698;-60